createdAt,value
2019-05-29T06:28:25.475Z,3.40
2019-05-29T06:29:25.451Z,5.20
2019-05-29T06:30:25.411Z,4.90
2019-05-29T06:31:27.326Z,4.10
2019-05-29T06:32:25.374Z,4.80
2019-05-29T06:33:25.349Z,5.10
2019-05-29T06:34:25.331Z,4.30
2019-05-29T06:35:25.324Z,3.70
2019-05-29T06:36:25.291Z,4.50
2019-05-29T06:37:26.116Z,6.10
2019-05-29T06:38:25.254Z,3.70
2019-05-29T06:39:25.237Z,5.10
2019-05-29T06:40:25.238Z,4.50
2019-05-29T06:41:25.197Z,3.70
2019-05-29T06:42:25.179Z,4.90
2019-05-29T06:43:25.161Z,4.00
2019-05-29T06:44:25.146Z,4.40
2019-05-29T06:45:25.126Z,3.90
2019-05-29T06:46:25.127Z,2.90
2019-05-29T06:47:25.098Z,3.90
2019-05-29T06:48:41.856Z,3.20
2019-05-29T06:49:25.053Z,3.70
2019-05-29T06:50:25.037Z,5.10
2019-05-29T06:51:25.022Z,4.10
2019-05-29T06:52:25.019Z,3.50
2019-05-29T06:53:25.013Z,4.30
2019-05-29T06:54:24.968Z,3.30
2019-05-29T06:55:24.967Z,3.50
2019-05-29T06:56:24.933Z,4.30
2019-05-29T06:57:25.973Z,2.60
2019-05-29T06:58:24.901Z,3.70
2019-05-29T06:59:24.883Z,3.30
2019-05-29T07:00:34.873Z,4.60
2019-05-29T07:01:24.848Z,5.20
2019-05-29T07:02:24.834Z,2.40
2019-05-29T07:03:24.851Z,2.60
2019-05-29T07:04:24.802Z,2.60
2019-05-29T07:05:24.783Z,3.50
2019-05-29T07:06:24.763Z,4.30
2019-05-29T07:07:24.747Z,2.40
2019-05-29T07:08:38.247Z,2.90
2019-05-29T07:09:24.783Z,4.40
2019-05-29T07:10:24.719Z,2.70
2019-05-29T07:11:24.683Z,3.40
2019-05-29T07:12:24.666Z,2.80
2019-05-29T07:13:24.648Z,3.80
2019-05-29T07:14:24.632Z,2.30
2019-05-29T07:15:24.638Z,2.50
2019-05-29T07:16:42.861Z,2.40
2019-05-29T07:17:24.583Z,3.60
2019-05-29T07:18:24.577Z,2.30
2019-05-29T07:19:38.873Z,3.80
2019-05-29T07:20:24.538Z,3.50
2019-05-29T07:21:24.533Z,4.10
2019-05-29T07:22:24.502Z,3.10
2019-05-29T07:23:24.485Z,5.00
2019-05-29T09:23:44.380Z,1.30
2019-05-29T09:24:44.323Z,2.30
2019-05-29T09:25:44.305Z,2.50
2019-05-29T09:26:46.407Z,1.70
2019-05-29T09:27:44.267Z,2.10
2019-05-29T09:28:44.246Z,1.80
2019-05-29T09:29:44.240Z,1.40
2019-05-29T09:30:44.209Z,1.40
2019-05-29T09:31:45.063Z,2.70
2019-05-29T09:32:51.458Z,1.10
2019-05-29T09:33:44.157Z,1.40
2019-05-29T09:34:47.479Z,1.50
2019-05-29T09:35:44.126Z,2.00
2019-05-29T09:36:44.103Z,2.90
2019-05-29T09:37:44.088Z,1.60
2019-05-29T09:38:44.076Z,1.30
2019-05-29T09:39:44.072Z,1.90
2019-05-29T09:40:44.036Z,1.30
2019-05-29T09:41:44.042Z,1.60
2019-05-29T09:42:44.004Z,1.10
2019-05-29T09:43:58.181Z,1.80
2019-05-29T09:44:43.970Z,2.70
2019-05-29T09:45:43.966Z,2.10
2019-05-29T09:46:43.944Z,1.90
2019-05-29T09:47:43.926Z,2.00
2019-05-29T09:48:49.623Z,1.50
2019-05-29T09:49:43.889Z,2.40
2019-05-29T09:50:49.927Z,1.80
2019-05-29T09:51:43.855Z,1.40
2019-05-29T09:52:43.838Z,1.20
2019-05-29T09:53:43.831Z,1.10
2019-05-29T10:42:45.118Z,0.60
2019-05-29T10:43:44.998Z,1.00
2019-05-29T10:44:44.878Z,1.10
2019-05-29T10:45:45.641Z,2.40
2019-05-29T10:46:46.122Z,0.80
2019-05-29T10:47:43.858Z,1.60
2019-05-29T10:48:45.411Z,0.80
2019-05-29T10:49:43.824Z,1.70
2019-05-29T10:50:47.756Z,1.40
2019-05-29T10:52:02.185Z,1.50
2019-05-29T10:52:43.804Z,1.00
2019-05-29T10:53:44.299Z,1.10
2019-05-29T10:54:44.077Z,0.90
2019-05-29T10:55:44.446Z,0.80
2019-05-29T10:56:44.718Z,1.70
2019-05-29T10:57:44.722Z,0.80
2019-05-29T10:58:49.745Z,0.80
2019-05-29T10:59:44.621Z,1.20
2019-05-29T11:00:45.276Z,0.80
2019-05-29T11:01:44.969Z,0.90
2019-05-29T11:02:43.627Z,1.20
2019-05-29T11:03:43.607Z,0.80
2019-05-29T11:04:47.572Z,1.10
2019-05-29T11:05:43.576Z,1.00
2019-05-29T11:06:43.572Z,1.10
2019-05-29T11:07:43.548Z,0.80
2019-05-29T11:08:43.538Z,1.30
2019-05-29T11:09:45.006Z,2.20
2019-05-29T11:10:43.506Z,1.10
2019-05-29T11:11:43.493Z,2.20
2019-05-29T11:12:43.484Z,1.90
2019-05-29T11:13:43.461Z,2.30
2019-05-29T11:14:43.447Z,0.80
2019-05-29T11:15:43.468Z,1.10
2019-05-29T11:16:43.419Z,2.80
2019-05-29T11:17:43.409Z,0.60
2019-05-29T11:18:43.391Z,3.20
2019-05-29T11:19:43.387Z,0.80
2019-05-29T11:20:43.363Z,1.40
2019-05-29T11:21:43.369Z,1.80
2019-05-29T11:22:43.335Z,0.70
2019-05-29T11:23:43.319Z,0.70
2019-05-29T11:24:43.326Z,0.70
2019-05-29T11:25:43.290Z,0.80
2019-05-29T11:26:43.297Z,1.20
2019-05-29T11:27:43.268Z,0.80
2019-05-29T11:28:43.251Z,1.10
2019-05-29T11:29:43.241Z,2.40
2019-05-29T11:30:43.289Z,1.10
2019-05-29T11:31:43.230Z,1.00
2019-05-29T11:32:47.151Z,0.60
2019-05-29T11:33:43.181Z,0.70
2019-05-29T11:34:43.169Z,0.90
2019-05-29T11:35:57.319Z,2.40
2019-05-29T11:36:43.143Z,1.30
2019-05-29T11:37:43.126Z,0.60
2019-05-29T11:38:43.127Z,1.20
2019-05-29T11:39:43.100Z,1.60
2019-05-29T11:40:43.430Z,0.80
2019-05-29T11:41:43.069Z,1.10
2019-05-29T11:42:43.056Z,1.50
2019-05-29T11:43:43.062Z,0.90
2019-05-29T11:44:43.034Z,0.70
2019-05-29T11:45:43.021Z,2.30
2019-05-29T11:46:43.006Z,1.00
2019-05-29T11:47:42.991Z,0.70
2019-05-29T11:48:43.016Z,1.60
2019-05-29T11:49:42.962Z,1.30
2019-05-29T11:50:42.952Z,1.80
2019-05-29T11:51:44.367Z,1.30
2019-05-29T11:52:43.566Z,0.60
2019-05-29T11:53:42.917Z,1.30
2019-05-29T11:54:42.909Z,0.70
2019-05-29T11:55:42.886Z,0.80
2019-05-29T11:56:42.868Z,0.70
2019-05-29T11:57:42.855Z,3.40
2019-05-29T11:58:42.842Z,0.50
2019-05-29T11:59:42.847Z,0.50
2019-05-29T12:00:42.818Z,2.20
2019-05-29T12:01:50.307Z,1.30
2019-05-29T12:02:42.791Z,1.20
2019-05-29T12:04:09.483Z,1.60
2019-05-29T12:04:42.779Z,2.20
2019-05-29T12:05:42.749Z,0.80
2019-05-29T12:06:42.744Z,1.70
2019-05-29T12:07:42.723Z,1.50
2019-05-29T12:08:42.718Z,0.90
2019-05-29T12:09:42.785Z,2.00
2019-05-29T12:10:42.700Z,0.60
2019-05-29T12:11:42.675Z,0.60
2019-05-29T12:12:42.658Z,2.00
2019-05-29T12:13:42.642Z,1.40
2019-05-29T12:14:59.009Z,0.80
2019-05-29T12:15:42.630Z,0.80
2019-05-29T12:16:42.604Z,1.50
2019-05-29T12:17:42.595Z,0.90
2019-05-29T12:18:42.578Z,0.60
2019-05-29T12:19:42.745Z,0.50
2019-05-29T12:20:42.566Z,0.90
2019-05-29T12:21:42.992Z,0.80
2019-05-29T12:23:07.222Z,1.30
2019-05-29T12:23:42.511Z,0.70
2019-05-29T12:24:42.498Z,0.70
2019-05-29T12:25:42.501Z,0.70
2019-05-29T12:26:42.474Z,0.60
2019-05-29T12:27:42.459Z,0.50
2019-05-29T12:28:42.444Z,1.10
2019-05-29T12:29:42.438Z,0.90
2019-05-29T12:30:42.433Z,0.60
2019-05-29T12:31:42.424Z,1.20
2019-05-29T12:32:42.396Z,0.60
2019-05-29T12:33:42.382Z,1.20
2019-05-29T12:34:53.181Z,0.60
2019-05-29T12:35:42.358Z,1.40
2019-05-29T12:36:42.342Z,0.60
2019-05-29T12:37:42.343Z,1.00
2019-05-29T12:38:42.319Z,0.50
2019-05-29T12:39:42.306Z,0.50
2019-05-29T12:40:42.292Z,0.70
2019-05-29T12:41:42.283Z,1.30
2019-05-29T12:42:45.006Z,0.70
2019-05-29T12:43:42.258Z,0.70
2019-05-29T12:44:42.250Z,1.40
2019-05-29T12:45:42.233Z,0.70
2019-05-29T12:46:42.217Z,0.60
2019-05-29T12:47:42.229Z,0.50
2019-05-29T12:48:42.203Z,0.70
2019-05-29T12:49:42.177Z,0.80
2019-05-29T12:50:42.166Z,0.60
2019-05-29T12:51:42.152Z,0.60
2019-05-29T12:52:42.140Z,0.40
2019-05-29T12:53:42.159Z,0.80
2019-05-29T12:54:42.125Z,0.40
2019-05-29T12:55:42.106Z,0.80
2019-05-29T12:56:42.094Z,1.10
2019-05-29T12:57:42.082Z,0.80
2019-05-29T12:58:42.069Z,0.70
2019-05-29T12:59:42.075Z,0.70
2019-05-29T13:00:42.051Z,0.70
2019-05-29T13:01:42.037Z,1.30
2019-05-29T13:02:42.027Z,1.10
2019-05-29T13:03:45.292Z,0.50
2019-05-29T13:05:06.200Z,0.60
2019-05-29T13:05:41.990Z,0.40
2019-05-29T13:06:41.981Z,0.90
2019-05-29T13:07:41.975Z,0.70
2019-05-29T13:08:41.959Z,0.50
2019-05-29T13:09:41.948Z,0.40
2019-05-29T13:10:41.957Z,0.90
2019-05-29T13:11:41.928Z,0.50
2019-05-29T13:12:42.451Z,1.00
2019-05-29T13:13:41.907Z,0.50
2019-05-29T13:14:41.914Z,0.80
2019-05-29T13:15:41.887Z,0.80
2019-05-29T13:16:41.892Z,0.40
2019-05-29T13:17:41.868Z,0.60
2019-05-29T13:18:41.858Z,0.50
2019-05-29T13:19:41.936Z,0.50
2019-05-29T13:20:41.855Z,0.80
2019-05-29T13:21:41.828Z,0.60
2019-05-29T13:22:41.821Z,1.00
2019-05-29T13:23:45.105Z,1.20
2019-05-29T13:24:41.804Z,0.60
2019-05-29T13:25:41.850Z,0.50
2019-05-29T13:26:41.798Z,0.90
2019-05-29T13:27:41.777Z,1.20
2019-05-29T13:28:41.765Z,0.50
2019-05-29T13:29:41.757Z,0.50
2019-05-29T13:30:41.748Z,0.60
2019-05-29T13:31:41.755Z,0.90
2019-05-29T13:32:42.139Z,0.60
2019-05-29T13:33:41.724Z,0.50
2019-05-29T13:34:41.716Z,0.60
2019-05-29T13:35:41.711Z,0.40
2019-05-29T13:36:41.728Z,0.40
2019-05-29T13:37:41.690Z,0.70
2019-05-29T13:38:41.682Z,0.60
2019-05-29T13:39:41.675Z,0.50
2019-05-29T13:40:41.668Z,1.20
2019-05-29T13:41:41.664Z,0.80
2019-05-29T13:42:41.667Z,0.90
2019-05-29T13:43:41.647Z,0.70
2019-05-29T13:44:41.756Z,1.30
2019-05-29T13:45:41.629Z,0.60
2019-05-29T13:46:41.657Z,0.70
2019-05-29T13:47:41.634Z,0.40
2019-05-29T13:48:41.644Z,0.50
2019-05-29T13:49:41.597Z,0.80
2019-05-29T13:50:41.591Z,0.50
2019-05-29T13:51:41.679Z,0.90
2019-05-29T13:52:41.576Z,1.30
2019-05-29T13:53:41.570Z,1.20
2019-05-29T13:54:41.561Z,0.50
2019-05-29T13:55:41.560Z,0.50
2019-05-29T13:56:41.570Z,0.90
2019-05-29T13:57:41.540Z,0.60
2019-05-29T13:58:41.534Z,0.90
2019-05-29T13:59:41.527Z,1.40
2019-05-29T14:00:41.521Z,0.50
2019-05-29T14:01:41.513Z,0.90
2019-05-29T14:02:41.525Z,1.30
2019-05-29T14:03:41.511Z,0.80
2019-05-29T14:04:41.495Z,0.30
2019-05-29T14:05:41.488Z,1.00
2019-05-29T14:06:41.479Z,0.90
2019-05-29T14:07:41.476Z,0.40
2019-05-29T14:08:41.486Z,0.30
2019-05-29T14:09:41.461Z,0.40
2019-05-29T14:10:41.464Z,1.10
2019-05-29T14:11:41.458Z,0.50
2019-05-29T14:12:41.442Z,0.50
2019-05-29T14:13:41.452Z,0.30
2019-05-29T14:14:41.431Z,0.30
2019-05-29T14:15:41.425Z,1.20
2019-05-29T14:16:41.418Z,1.10
2019-05-29T14:17:41.423Z,0.20
2019-05-29T14:18:41.454Z,0.60
2019-05-29T14:19:41.409Z,0.30
2019-05-29T14:20:41.398Z,0.50
2019-05-29T14:21:41.391Z,0.40
2019-05-29T14:22:41.384Z,0.40
2019-05-29T14:23:41.396Z,0.30
2019-05-29T14:24:41.378Z,0.30
2019-05-29T14:25:41.370Z,0.60
2019-05-29T14:26:41.369Z,0.30
2019-05-29T14:27:41.396Z,0.30
2019-05-29T14:28:41.373Z,0.90
2019-05-29T14:29:41.351Z,0.50
2019-05-29T14:30:41.345Z,1.30
2019-05-29T14:31:41.339Z,0.60
2019-05-29T14:32:41.339Z,0.70
2019-05-29T14:33:41.335Z,0.90
2019-05-29T14:34:41.342Z,0.70
2019-05-29T14:35:41.320Z,0.70
2019-05-29T14:36:41.327Z,0.50
2019-05-29T14:37:41.323Z,0.70
2019-05-29T14:38:41.306Z,0.60
2019-05-29T14:39:41.304Z,0.60
2019-05-29T14:40:41.313Z,0.50
2019-05-29T14:41:41.297Z,1.00
2019-05-29T14:42:41.365Z,0.90
2019-05-29T14:43:41.283Z,0.70
2019-05-29T14:44:41.279Z,0.50
2019-05-29T14:45:41.292Z,0.60
2019-05-29T14:46:41.271Z,0.50
2019-05-29T14:47:41.269Z,0.60
2019-05-29T14:48:41.262Z,1.00
2019-05-29T14:49:41.257Z,0.50
2019-05-29T14:50:41.256Z,0.60
2019-05-29T14:51:41.368Z,0.50
2019-05-29T14:52:41.265Z,0.60
2019-05-29T14:53:41.270Z,0.50
2019-05-29T14:54:42.653Z,0.70
2019-05-29T14:55:41.234Z,0.60
2019-05-29T14:56:41.332Z,1.20
2019-05-29T14:57:41.236Z,1.10
2019-05-29T14:58:41.222Z,1.40
2019-05-29T14:59:41.251Z,0.90
2019-05-29T15:00:41.214Z,0.50
2019-05-29T15:01:41.239Z,0.50
2019-05-29T15:02:41.208Z,0.30
2019-05-29T15:03:41.206Z,0.80
2019-05-29T15:04:41.201Z,1.00
2019-05-29T15:05:41.201Z,0.60
2019-05-29T15:06:41.196Z,0.90
2019-05-29T15:07:41.209Z,0.50
2019-05-29T15:08:41.195Z,0.60
2019-05-29T15:09:41.186Z,0.50
2019-05-29T15:10:41.185Z,1.10
2019-05-29T15:11:41.177Z,0.90
2019-05-29T15:12:41.213Z,0.90
2019-05-29T15:13:41.174Z,0.90
2019-05-29T15:14:41.170Z,0.60
2019-05-29T15:15:41.169Z,0.80
2019-05-29T15:16:41.165Z,1.30
2019-05-29T15:17:41.163Z,1.60
2019-05-29T15:18:41.175Z,0.60
2019-05-29T15:19:41.155Z,0.40
2019-05-29T15:20:41.154Z,0.90
2019-05-29T15:21:41.150Z,0.60
2019-05-29T15:22:41.163Z,1.40
2019-05-29T15:23:41.145Z,1.30
2019-05-29T15:24:56.169Z,0.90
2019-05-29T15:25:41.144Z,0.50
2019-05-29T15:26:41.147Z,0.40
2019-05-29T15:27:41.144Z,1.80
2019-05-29T15:28:41.144Z,0.60
2019-05-29T15:29:41.127Z,0.80
2019-05-29T15:30:41.135Z,0.90
2019-05-29T15:31:41.127Z,0.50
2019-05-29T15:32:41.276Z,1.40
2019-05-29T15:33:41.119Z,1.10
2019-05-29T15:34:41.121Z,0.80
2019-05-29T15:35:41.114Z,0.70
2019-05-29T15:36:41.111Z,1.60
2019-05-29T15:37:41.109Z,1.50
2019-05-29T15:38:41.123Z,1.10
2019-05-29T15:39:41.104Z,1.10
2019-05-29T15:40:41.106Z,1.30
2019-05-29T15:41:41.103Z,1.20
2019-05-29T15:42:41.100Z,2.20
2019-05-29T15:43:41.106Z,1.40
2019-05-29T15:44:41.089Z,0.70
2019-05-29T15:45:41.086Z,3.40
2019-05-29T15:46:41.086Z,2.30
2019-05-29T15:47:41.085Z,1.20
2019-05-29T15:48:41.098Z,0.80
2019-05-29T15:49:41.077Z,0.70
2019-05-29T15:50:41.077Z,1.00
2019-05-29T15:51:41.074Z,1.10
2019-05-29T15:52:41.072Z,1.30
2019-05-29T15:53:41.069Z,0.60
2019-05-29T15:54:41.080Z,1.80
2019-05-29T15:55:41.064Z,2.20
2019-05-29T15:56:41.061Z,0.90
2019-05-29T15:57:41.069Z,1.90
2019-05-29T15:58:41.062Z,0.80
2019-05-29T15:59:41.091Z,0.70
2019-05-29T16:00:41.058Z,1.30
2019-05-29T16:01:41.048Z,2.70
2019-05-29T16:02:41.047Z,2.40
2019-05-29T16:03:41.041Z,1.30
2019-05-29T16:04:41.041Z,2.60
2019-05-29T16:05:41.053Z,0.80
2019-05-29T16:06:41.038Z,0.80
2019-05-29T16:07:41.035Z,1.90
2019-05-29T16:08:41.030Z,1.70
2019-05-29T16:09:41.046Z,1.10
2019-05-29T16:10:41.030Z,1.10
2019-05-29T16:11:41.029Z,1.50
2019-05-29T16:12:41.022Z,1.60
2019-05-29T16:13:41.024Z,1.50
2019-05-29T16:14:41.023Z,0.90
2019-05-29T16:15:41.031Z,1.40
2019-05-29T16:16:41.018Z,1.80
2019-05-29T16:17:41.009Z,0.80
2019-05-29T16:18:41.006Z,2.10
2019-05-29T16:19:41.004Z,0.90
2019-05-29T16:20:41.018Z,1.40
2019-05-29T16:21:40.997Z,1.60
2019-05-29T16:22:41.013Z,0.70
2019-05-29T16:23:40.994Z,1.20
2019-05-29T16:24:40.989Z,0.80
2019-05-29T16:25:40.987Z,2.30
2019-05-29T16:26:41.001Z,3.00
2019-05-29T16:27:40.980Z,1.80
2019-05-29T16:28:40.976Z,1.90
2019-05-29T16:29:40.988Z,1.20
2019-05-29T16:30:40.970Z,1.20
2019-05-29T16:31:40.981Z,1.20
2019-05-29T16:32:40.970Z,1.00
2019-05-29T16:33:40.977Z,2.60
2019-05-29T16:34:40.960Z,1.20
2019-05-29T16:35:40.958Z,1.60
2019-05-29T16:36:40.970Z,1.40
2019-05-29T16:37:40.950Z,1.50
2019-05-29T16:38:40.945Z,2.60
2019-05-29T16:39:40.945Z,2.00
2019-05-29T16:40:40.939Z,1.10
2019-05-29T16:41:40.938Z,2.00
2019-05-29T16:42:40.950Z,1.40
2019-05-29T16:43:40.942Z,1.20
2019-05-29T16:44:40.933Z,1.70
2019-05-29T16:45:40.922Z,0.80
2019-05-29T16:46:40.920Z,2.70
2019-05-29T16:47:40.936Z,2.10
2019-05-29T16:48:40.913Z,2.40
2019-05-29T16:49:40.916Z,1.70
2019-05-29T16:50:48.767Z,2.70
2019-05-29T16:51:42.124Z,2.50
2019-05-29T16:52:40.899Z,1.90
2019-05-29T16:53:40.909Z,1.60
2019-05-29T16:54:40.929Z,2.00
2019-05-29T16:55:52.968Z,2.10
2019-05-29T16:56:40.884Z,1.70
2019-05-29T16:57:40.877Z,1.40
2019-05-29T16:58:40.891Z,0.90
2019-05-29T16:59:40.874Z,2.30
2019-05-29T17:00:40.874Z,2.10
2019-05-29T17:01:40.875Z,2.00
2019-05-29T17:02:40.859Z,1.50
2019-05-29T17:03:40.875Z,1.00
2019-05-29T17:04:40.855Z,1.30
2019-05-29T17:05:40.848Z,2.20
2019-05-29T17:06:40.851Z,1.00
2019-05-29T17:07:40.845Z,1.90
2019-05-29T17:08:40.839Z,1.40
2019-05-29T17:09:40.847Z,1.30
2019-05-29T17:10:40.836Z,2.30
2019-05-29T17:11:40.828Z,2.20
2019-05-29T17:12:40.824Z,1.30
2019-05-29T17:13:40.821Z,1.60
2019-05-29T17:14:40.835Z,2.30
2019-05-29T17:15:40.812Z,4.60
2019-05-29T17:16:40.807Z,1.60
2019-05-29T17:17:40.803Z,2.20
2019-05-29T17:18:40.800Z,1.20
2019-05-29T17:19:40.810Z,1.50
2019-05-29T17:20:40.790Z,1.40
2019-05-29T17:21:40.808Z,1.20
2019-05-29T17:22:40.784Z,1.70
2019-05-29T17:23:40.778Z,0.80
2019-05-29T17:24:40.791Z,1.20
2019-05-29T17:25:40.785Z,1.90
2019-05-29T17:26:40.762Z,1.20
2019-05-29T17:27:40.767Z,2.00
2019-05-29T17:28:40.760Z,1.20
2019-05-29T17:29:40.756Z,1.30
2019-05-29T17:30:40.761Z,0.80
2019-05-29T17:31:40.743Z,2.10
2019-05-29T17:32:40.734Z,2.00
2019-05-29T17:33:40.729Z,2.40
2019-05-29T17:34:40.725Z,2.50
2019-05-29T17:35:40.766Z,2.20
2019-05-29T17:36:40.711Z,2.20
2019-05-29T17:37:40.710Z,2.30
2019-05-29T17:38:40.861Z,1.30
2019-05-29T17:39:40.697Z,1.00
2019-05-29T17:40:40.694Z,1.40
2019-05-29T17:41:40.699Z,1.70
2019-05-29T17:42:40.677Z,1.40
2019-05-29T17:43:40.674Z,2.80
2019-05-29T17:44:40.665Z,2.10
2019-05-29T17:45:40.659Z,1.10
2019-05-29T17:46:40.685Z,1.30
2019-05-29T17:47:40.648Z,2.30
2019-05-29T17:48:40.650Z,1.10
2019-05-29T17:49:40.637Z,2.00
2019-05-29T17:50:40.629Z,1.10
2019-05-29T17:51:40.640Z,1.30
2019-05-29T17:52:40.616Z,1.40
2019-05-29T17:53:40.620Z,1.40
2019-05-29T17:54:40.605Z,1.10
2019-05-29T17:55:40.598Z,3.50
2019-05-29T17:56:40.611Z,1.40
2019-05-29T17:57:40.578Z,1.80
2019-05-29T17:58:40.571Z,2.40
2019-05-29T17:59:40.562Z,2.20
2019-05-29T18:00:40.553Z,2.40
2019-05-29T18:01:40.546Z,1.10
2019-05-29T18:02:51.436Z,1.20
2019-05-29T18:03:40.528Z,1.40
2019-05-29T18:04:40.517Z,1.60
2019-05-29T18:05:40.511Z,2.00
2019-05-29T18:06:40.504Z,2.00
2019-05-29T18:07:40.494Z,2.20
2019-05-29T18:08:40.495Z,1.90
2019-05-29T18:09:40.473Z,1.30
2019-05-29T18:10:40.464Z,2.30
2019-05-29T18:11:40.455Z,2.10
2019-05-29T18:12:40.439Z,1.90
2019-05-29T18:13:40.444Z,1.80
2019-05-29T18:14:40.419Z,1.40
2019-05-29T18:15:40.411Z,1.90
2019-05-29T18:16:40.399Z,2.20
2019-05-29T18:17:43.585Z,1.30
2019-05-29T18:18:40.394Z,2.50
2019-05-29T18:19:40.390Z,2.60
2019-05-29T18:20:40.354Z,2.80
2019-05-29T18:21:40.343Z,2.60
2019-05-29T18:22:40.329Z,3.60
2019-05-29T18:23:40.319Z,2.30
2019-05-29T18:24:40.326Z,1.30
2019-05-29T18:25:40.295Z,2.40
2019-05-29T18:26:46.958Z,1.60
2019-05-29T18:27:40.273Z,2.20
2019-05-29T18:28:40.260Z,1.80
2019-05-29T18:29:40.245Z,3.20
2019-05-29T18:30:40.248Z,1.70
2019-05-29T18:31:40.223Z,1.50
2019-05-29T18:32:40.222Z,2.70
2019-05-29T18:33:40.216Z,2.20
2019-05-29T18:34:40.185Z,3.10
2019-05-29T18:35:40.191Z,2.00
2019-05-29T18:36:40.169Z,1.20
2019-05-29T18:37:40.147Z,1.60
2019-05-29T18:38:40.132Z,2.90
2019-05-29T18:39:40.120Z,1.20
2019-05-29T18:40:40.105Z,1.80
2019-05-29T18:41:40.105Z,3.00
2019-05-29T18:42:40.086Z,2.40
2019-05-29T18:43:40.065Z,1.20
2019-05-29T18:44:40.051Z,2.40
2019-05-29T18:45:40.041Z,2.20
2019-05-29T18:46:40.040Z,3.60
2019-05-29T18:47:40.013Z,3.10
2019-05-29T18:48:39.997Z,2.80
2019-05-29T18:49:39.984Z,3.70
2019-05-29T18:50:44.015Z,2.90
2019-05-29T18:51:39.975Z,2.50
2019-05-29T18:52:39.943Z,1.60
2019-05-29T18:53:39.930Z,2.10
2019-05-29T18:54:39.918Z,1.80
2019-05-29T18:55:39.902Z,1.30
2019-05-29T18:56:39.890Z,2.20
2019-05-29T18:57:39.892Z,3.30
2019-05-29T18:58:39.862Z,2.70
2019-05-29T18:59:39.845Z,4.80
2019-05-29T19:00:39.831Z,2.00
2019-05-29T19:01:39.821Z,1.20
2019-05-29T19:02:39.839Z,1.90
2019-05-29T19:03:40.664Z,2.90
2019-05-29T19:04:39.785Z,2.00
2019-05-29T19:05:39.761Z,1.70
2019-05-29T19:06:39.744Z,3.00
2019-05-29T19:07:39.733Z,1.60
2019-05-29T19:08:39.729Z,1.90
2019-05-29T19:09:39.702Z,1.20
2019-05-29T19:10:39.685Z,1.40
2019-05-29T19:11:39.680Z,2.40
2019-05-29T19:12:39.655Z,3.30
2019-05-29T19:13:39.663Z,2.90
2019-05-29T19:14:39.627Z,1.80
2019-05-29T19:15:39.612Z,3.00
2019-05-29T19:16:39.799Z,2.50
2019-05-29T19:17:39.587Z,2.20
2019-05-29T19:18:39.568Z,2.90
2019-05-29T19:19:39.570Z,5.70
2019-05-29T19:20:39.540Z,2.60
2019-05-29T19:21:39.520Z,2.90
2019-05-29T19:22:39.507Z,2.60
2019-05-29T19:23:39.493Z,2.50
2019-05-29T19:24:39.488Z,3.80
2019-05-29T19:25:39.464Z,1.90
2019-05-29T19:26:39.446Z,1.80
2019-05-29T19:27:42.140Z,2.00
2019-05-29T19:28:39.413Z,3.50
2019-05-29T19:29:39.436Z,2.80
2019-05-29T19:30:39.384Z,2.80
2019-05-29T19:31:42.492Z,4.10
2019-05-29T19:32:39.351Z,4.60
2019-05-29T19:33:39.338Z,2.80
2019-05-29T19:34:39.319Z,3.50
2019-05-29T19:35:39.326Z,2.40
2019-05-29T19:36:39.289Z,3.20
2019-05-29T19:37:39.278Z,3.50
2019-05-29T19:38:39.272Z,2.20
2019-05-29T19:39:39.243Z,2.80
2019-05-29T19:40:39.222Z,3.10
2019-05-29T19:41:39.224Z,3.00
2019-05-29T19:42:39.199Z,3.90
2019-05-29T19:43:39.177Z,3.20
2019-05-29T19:44:39.164Z,2.10
2019-05-29T19:45:39.151Z,2.90
2019-05-29T19:46:53.300Z,2.30
2019-05-29T19:47:39.117Z,2.10
2019-05-29T19:48:39.103Z,1.70
2019-05-29T19:49:39.089Z,1.50
2019-05-29T19:50:39.075Z,1.90
2019-05-29T19:51:39.078Z,3.00
2019-05-29T19:52:39.033Z,1.50
2019-05-29T19:53:39.019Z,2.10
2019-05-29T19:54:39.003Z,1.60
2019-05-29T19:55:38.990Z,1.90
2019-05-29T19:56:38.968Z,3.30
2019-05-29T19:57:54.734Z,2.10
2019-05-29T19:58:38.938Z,4.20
2019-05-29T19:59:38.922Z,2.60
2019-05-29T20:00:38.904Z,2.40
2019-05-29T20:01:40.442Z,3.50
2019-05-29T20:02:38.870Z,1.60
2019-05-29T20:03:38.872Z,2.30
2019-05-29T20:04:38.841Z,2.50
2019-05-29T20:05:38.822Z,2.00
2019-05-29T20:06:38.810Z,2.20
2019-05-29T20:07:38.788Z,1.60
2019-05-29T20:08:39.696Z,3.10
2019-05-29T20:09:38.763Z,1.80
2019-05-29T20:10:38.747Z,3.30
2019-05-29T20:11:38.725Z,3.10
2019-05-29T20:12:38.710Z,2.70
2019-05-29T20:13:38.707Z,2.80
2019-05-29T20:14:38.674Z,2.00
2019-05-29T20:15:38.659Z,2.30
2019-05-29T20:16:39.306Z,2.60
2019-05-29T20:17:38.720Z,1.50
2019-05-29T20:18:38.637Z,2.50
2019-05-29T20:19:40.897Z,2.20
2019-05-29T20:20:38.764Z,2.10
2019-05-29T20:21:38.937Z,3.00
2019-05-29T20:22:39.117Z,2.00
2019-05-29T20:23:38.864Z,2.50
2019-05-29T20:24:39.057Z,1.70
2019-05-29T20:25:39.070Z,2.50
2019-05-29T20:26:39.402Z,1.40
2019-05-29T20:27:38.667Z,1.70
2019-05-29T20:28:38.497Z,1.70
2019-05-29T20:29:38.577Z,1.70
2019-05-29T20:30:38.765Z,2.10
2019-05-29T20:31:38.748Z,3.20
2019-05-29T20:32:38.956Z,1.40
2019-05-29T20:33:38.658Z,3.70
2019-05-29T20:34:39.024Z,2.20
2019-05-29T20:35:39.150Z,1.60
2019-05-29T20:36:39.653Z,1.40
2019-05-29T20:37:38.503Z,1.40
2019-05-29T20:38:39.324Z,3.80
2019-05-29T20:39:38.515Z,2.00
2019-05-29T20:40:39.331Z,3.30
2019-05-29T20:41:41.369Z,2.80
2019-05-29T20:42:38.557Z,2.40
2019-05-29T20:43:38.473Z,1.90
2019-05-29T20:44:38.718Z,2.40
2019-05-29T20:45:38.158Z,2.50
2019-05-29T20:46:38.646Z,1.60
2019-05-29T20:47:38.160Z,1.80
2019-05-29T20:48:38.771Z,2.40
2019-05-29T20:49:38.116Z,2.10
2019-05-29T20:50:39.177Z,2.60
2019-05-29T20:51:38.317Z,2.30
2019-05-29T20:52:39.277Z,2.00
2019-05-29T20:53:38.023Z,1.90
2019-05-29T20:54:38.014Z,1.70
2019-05-29T20:55:38.008Z,2.30
2019-05-29T20:56:38.003Z,2.40
2019-05-29T20:57:38.149Z,2.40
2019-05-29T20:58:37.934Z,3.90
2019-05-29T20:59:38.178Z,2.50
2019-05-29T21:00:38.390Z,2.30
2019-05-29T21:01:42.980Z,2.10
2019-05-29T21:02:38.149Z,1.90
2019-05-29T21:03:38.650Z,2.80
2019-05-29T21:04:38.509Z,1.80
2019-05-29T21:05:38.666Z,3.00
2019-05-29T21:06:38.631Z,2.40
2019-05-29T21:07:38.826Z,2.50
2019-05-29T21:08:38.756Z,3.10
2019-05-29T21:09:39.096Z,2.70
2019-05-29T21:10:37.725Z,1.70
2019-05-29T21:11:37.714Z,2.20
2019-05-29T21:12:42.461Z,3.50
2019-05-29T21:13:37.675Z,2.00
2019-05-29T21:14:37.656Z,2.20
2019-05-29T21:15:37.646Z,1.80
2019-05-29T21:16:37.699Z,2.60
2019-05-29T21:17:37.952Z,1.70
2019-05-29T21:18:37.920Z,2.00
2019-05-29T21:19:38.207Z,2.20
2019-05-29T21:20:38.319Z,4.80
2019-05-29T21:21:38.312Z,2.20
2019-05-29T21:22:38.589Z,3.10
2019-05-29T21:23:38.328Z,3.00
2019-05-29T21:24:38.570Z,2.20
2019-05-29T21:25:38.498Z,2.40
2019-05-29T21:26:37.446Z,3.90
2019-05-29T21:27:39.409Z,2.20
2019-05-29T21:28:44.424Z,5.00
2019-05-29T21:29:37.393Z,2.90
2019-05-29T21:30:37.493Z,2.70
2019-05-29T21:31:37.611Z,1.90
2019-05-29T21:32:37.866Z,3.20
2019-05-29T21:33:38.071Z,3.50
2019-05-29T21:34:37.847Z,3.00
2019-05-29T21:35:37.989Z,2.60
2019-05-29T21:36:37.961Z,2.30
2019-05-29T21:37:38.227Z,2.10
2019-05-29T21:38:38.044Z,2.80
2019-05-29T21:39:38.325Z,3.40
2019-05-29T21:40:38.239Z,2.30
2019-05-29T21:41:38.316Z,3.00
2019-05-29T21:42:38.418Z,2.90
2019-05-29T21:43:38.549Z,2.10
2019-05-29T21:44:37.128Z,2.50
2019-05-29T21:45:37.130Z,5.20
2019-05-29T21:46:37.092Z,2.20
2019-05-29T21:47:37.276Z,2.50
2019-05-29T21:48:37.061Z,2.30
2019-05-29T21:49:37.288Z,2.40
2019-05-29T21:50:37.185Z,4.00
2019-05-29T21:51:37.379Z,4.00
2019-05-29T21:52:37.510Z,2.20
2019-05-29T21:53:37.267Z,2.30
2019-05-29T21:54:37.309Z,2.90
2019-05-29T21:55:37.558Z,2.40
2019-05-29T21:56:37.512Z,2.90
2019-05-29T21:57:37.785Z,3.30
2019-05-29T21:58:37.546Z,3.10
2019-05-29T21:59:37.677Z,2.00
2019-05-29T22:00:37.913Z,2.30
2019-05-29T22:01:37.933Z,2.30
2019-05-29T22:02:38.145Z,2.60
2019-05-29T22:03:38.221Z,3.30
2019-05-29T22:04:38.262Z,2.20
2019-05-29T22:05:36.752Z,3.20
2019-05-29T22:06:36.727Z,2.80
2019-05-29T22:07:36.737Z,2.60
2019-05-29T22:08:36.733Z,3.10
2019-05-29T22:09:36.677Z,2.20
2019-05-29T22:10:36.655Z,2.50
2019-05-29T22:11:36.638Z,3.50
2019-05-29T22:12:36.621Z,3.40
2019-05-29T22:13:36.614Z,2.70
2019-05-29T22:14:36.593Z,3.50
2019-05-29T22:15:36.567Z,2.40
2019-05-29T22:16:36.548Z,4.80
2019-05-29T22:17:36.528Z,2.40
2019-05-29T22:18:36.530Z,3.10
2019-05-29T22:19:36.493Z,2.60
2019-05-29T22:20:36.473Z,3.40
2019-05-29T22:21:36.453Z,4.80
2019-05-29T22:22:36.437Z,2.30
2019-05-29T22:23:36.435Z,2.30
2019-05-29T22:24:36.402Z,2.50
2019-05-29T22:25:36.381Z,2.60
2019-05-29T22:26:36.362Z,2.40
2019-05-29T22:27:36.348Z,3.20
2019-05-29T22:28:36.326Z,3.90
2019-05-29T22:29:36.321Z,2.60
2019-05-29T22:30:36.290Z,2.70
2019-05-29T22:31:36.273Z,2.90
2019-05-29T22:32:36.261Z,3.00
2019-05-29T22:33:36.235Z,3.60